Portada
METAR-TAF:

METAR-TAF

Aeropuertos :

Aeropuerto de San Sebastián

San Sebastián, España

latitud: 43-21N, longitud: 001-48W, altitud: 5 m

Observación

El informe se hizo hace 34 minutos, a las 21:30 UTC
Viento 1 kt con dirección variable
Temperatura 9°C
Humedad 87%
Presión 1014 hPa
Visibilidad 10 km o más
sin nubes por debajo de 1500 m y sin presencia de cumulonimbus.

METAR: LESO 312130Z AUTO VRB01KT CAVOK 09/07 Q1014

Hora: 00:04 (22:04 UTC)

Pronóstico

El informe se hizo hace 5 horas y 4 minutos, a las 17:00 UTC
Pronóstico válido del 31 a las 18 UTC al 01 a las 18 UTC
Viento 8 kt del este
Visibilidad 10 km o más
Cielo nuboso a una altura de 4000 ft

TAF: LESO 311700Z 3118/0118 09008KT 9999 BKN040 TX15/0115Z TN06/0106Z

Observaciones y pronósticos meteorológicos de más de 4000 aeropuertos (mensajes METAR y TAF).

Los puntos amarillos y rojos representan las estaciones disponibles.

Ponga el ratón en el punto deseado para ver el nombre de la estación.

Haga clic para ver las observaciones y los pronósticos meteorológicos.

Para cambiar el mapa : haga clic en los botones verdes con una cruz de color negro para hacer un zoom, en el botón verde con un guión para alejar o en las flechas verdes para mapas adyacentes.


METAR-TAF: